Afton, Tennessee
Current Conditions -  °F | °C
As of 7:53 AM on Wednesday 22 Oct 2014 (Local Time) from KTRI Reporting Station
Broken Clouds Broken Clouds  
Wind Chill:   Ceiling: 3600
Heat Index:   Visibility: 10mi
Dew Point:   Wind: 8mph
Humidity: 71%   Direction: 340°NNW
Pressure: 30.16"   Gusts: NA
Location:  36.19°N, 82.74°W
Report Text: KTRI 221153Z 34007KT 10SM BKN036 08/03 A3016 RMK AO2 SLP200 T00780028 10094 20072 51018
Loading
Personal Weather Stations






























Interactive Weather Map
Tropical Storm Tracking
New forecast layout! Learn more

10-Day Weather Forecast

Advertisements
Track Severe Weather on mobile